sensor_id;sensor_type;location;lat;lon;timestamp;P1;durP1;ratioP1;P2;durP2;ratioP2
63975;SDS011;50167;47.958;21.780;2024-03-02T00:00:22;57.30;;;32.23;;
63975;SDS011;50167;47.958;21.780;2024-03-02T00:02:50;49.17;;;29.80;;
63975;SDS011;50167;47.958;21.780;2024-03-02T00:05:18;55.37;;;31.13;;
63975;SDS011;50167;47.958;21.780;2024-03-02T00:08:08;48.30;;;29.23;;
63975;SDS011;50167;47.958;21.780;2024-03-02T00:10:23;51.13;;;30.60;;
63975;SDS011;50167;47.958;21.780;2024-03-02T00:12:55;57.53;;;31.00;;
63975;SDS011;50167;47.958;21.780;2024-03-02T00:18:20;52.50;;;30.00;;
63975;SDS011;50167;47.958;21.780;2024-03-02T00:20:56;51.80;;;30.57;;
63975;SDS011;50167;47.958;21.780;2024-03-02T00:23:24;46.28;;;29.90;;
63975;SDS011;50167;47.958;21.780;2024-03-02T00:25:55;47.47;;;29.33;;
63975;SDS011;50167;47.958;21.780;2024-03-02T00:28:22;46.93;;;29.90;;
63975;SDS011;50167;47.958;21.780;2024-03-02T00:30:58;51.77;;;28.87;;
63975;SDS011;50167;47.958;21.780;2024-03-02T00:33:37;47.03;;;29.23;;
63975;SDS011;50167;47.958;21.780;2024-03-02T00:36:10;45.93;;;29.77;;
63975;SDS011;50167;47.958;21.780;2024-03-02T00:38:50;52.40;;;30.10;;
63975;SDS011;50167;47.958;21.780;2024-03-02T00:43:59;60.00;;;32.83;;
63975;SDS011;50167;47.958;21.780;2024-03-02T00:46:34;48.17;;;31.43;;
63975;SDS011;50167;47.958;21.780;2024-03-02T00:49:26;53.57;;;30.57;;
63975;SDS011;50167;47.958;21.780;2024-03-02T00:51:52;58.83;;;35.53;;
63975;SDS011;50167;47.958;21.780;2024-03-02T00:54:23;59.53;;;35.33;;
63975;SDS011;50167;47.958;21.780;2024-03-02T00:56:54;63.37;;;38.60;;
63975;SDS011;50167;47.958;21.780;2024-03-02T00:59:24;55.58;;;34.48;;
63975;SDS011;50167;47.958;21.780;2024-03-02T01:01:50;53.03;;;34.63;;
63975;SDS011;50167;47.958;21.780;2024-03-02T01:04:17;57.07;;;34.00;;
63975;SDS011;50167;47.958;21.780;2024-03-02T01:06:43;51.87;;;31.30;;
63975;SDS011;50167;47.958;21.780;2024-03-02T01:09:09;50.80;;;32.23;;
63975;SDS011;50167;47.958;21.780;2024-03-02T01:11:37;51.97;;;31.67;;
63975;SDS011;50167;47.958;21.780;2024-03-02T01:14:04;49.63;;;30.73;;
63975;SDS011;50167;47.958;21.780;2024-03-02T01:16:30;52.10;;;30.97;;
63975;SDS011;50167;47.958;21.780;2024-03-02T01:18:56;52.00;;;33.47;;
63975;SDS011;50167;47.958;21.780;2024-03-02T01:21:22;54.50;;;32.80;;
63975;SDS011;50167;47.958;21.780;2024-03-02T01:23:49;49.77;;;31.70;;
63975;SDS011;50167;47.958;21.780;2024-03-02T01:26:15;55.23;;;30.03;;
63975;SDS011;50167;47.958;21.780;2024-03-02T01:31:19;47.27;;;29.00;;
63975;SDS011;50167;47.958;21.780;2024-03-02T01:33:45;48.07;;;29.73;;
63975;SDS011;50167;47.958;21.780;2024-03-02T01:36:11;56.03;;;31.03;;
63975;SDS011;50167;47.958;21.780;2024-03-02T01:38:38;51.83;;;29.07;;
63975;SDS011;50167;47.958;21.780;2024-03-02T01:41:04;54.40;;;31.63;;
63975;SDS011;50167;47.958;21.780;2024-03-02T01:43:30;43.63;;;26.87;;
63975;SDS011;50167;47.958;21.780;2024-03-02T01:45:56;43.83;;;28.10;;
63975;SDS011;50167;47.958;21.780;2024-03-02T01:48:22;48.33;;;29.20;;
63975;SDS011;50167;47.958;21.780;2024-03-02T01:50:48;44.33;;;27.73;;
63975;SDS011;50167;47.958;21.780;2024-03-02T01:53:14;44.20;;;28.20;;
63975;SDS011;50167;47.958;21.780;2024-03-02T01:55:41;46.47;;;29.37;;
63975;SDS011;50167;47.958;21.780;2024-03-02T01:58:07;48.90;;;28.43;;
63975;SDS011;50167;47.958;21.780;2024-03-02T02:00:33;44.57;;;26.43;;
63975;SDS011;50167;47.958;21.780;2024-03-02T02:02:59;46.93;;;28.17;;
63975;SDS011;50167;47.958;21.780;2024-03-02T02:05:26;43.13;;;26.33;;
63975;SDS011;50167;47.958;21.780;2024-03-02T02:07:52;47.17;;;26.43;;
63975;SDS011;50167;47.958;21.780;2024-03-02T02:10:18;57.63;;;25.83;;
63975;SDS011;50167;47.958;21.780;2024-03-02T02:12:45;39.40;;;25.20;;
63975;SDS011;50167;47.958;21.780;2024-03-02T02:15:27;42.67;;;25.50;;
63975;SDS011;50167;47.958;21.780;2024-03-02T02:17:56;42.10;;;26.23;;
63975;SDS011;50167;47.958;21.780;2024-03-02T02:20:24;40.33;;;25.47;;
63975;SDS011;50167;47.958;21.780;2024-03-02T02:23:03;35.33;;;20.93;;
63975;SDS011;50167;47.958;21.780;2024-03-02T02:25:34;31.50;;;18.67;;
63975;SDS011;50167;47.958;21.780;2024-03-02T02:28:01;27.57;;;16.93;;
63975;SDS011;50167;47.958;21.780;2024-03-02T02:30:28;23.33;;;12.80;;
63975;SDS011;50167;47.958;21.780;2024-03-02T02:32:56;21.27;;;11.93;;
63975;SDS011;50167;47.958;21.780;2024-03-02T02:35:23;19.17;;;10.03;;
63975;SDS011;50167;47.958;21.780;2024-03-02T02:37:49;16.70;;;9.40;;
63975;SDS011;50167;47.958;21.780;2024-03-02T02:40:17;15.40;;;9.10;;
63975;SDS011;50167;47.958;21.780;2024-03-02T02:42:46;14.97;;;7.90;;
63975;SDS011;50167;47.958;21.780;2024-03-02T02:45:12;13.03;;;6.63;;
63975;SDS011;50167;47.958;21.780;2024-03-02T02:47:43;13.13;;;6.20;;
63975;SDS011;50167;47.958;21.780;2024-03-02T02:50:10;17.85;;;7.50;;
63975;SDS011;50167;47.958;21.780;2024-03-02T02:52:38;12.33;;;6.57;;
63975;SDS011;50167;47.958;21.780;2024-03-02T02:55:10;11.77;;;7.40;;
63975;SDS011;50167;47.958;21.780;2024-03-02T02:57:38;14.13;;;7.10;;
63975;SDS011;50167;47.958;21.780;2024-03-02T03:00:08;18.07;;;9.67;;
63975;SDS011;50167;47.958;21.780;2024-03-02T03:02:38;15.67;;;9.53;;
63975;SDS011;50167;47.958;21.780;2024-03-02T03:05:07;22.23;;;7.60;;
63975;SDS011;50167;47.958;21.780;2024-03-02T03:07:39;20.60;;;12.37;;
63975;SDS011;50167;47.958;21.780;2024-03-02T03:10:07;17.40;;;9.10;;
63975;SDS011;50167;47.958;21.780;2024-03-02T03:12:34;21.13;;;13.27;;
63975;SDS011;50167;47.958;21.780;2024-03-02T03:15:01;25.30;;;14.20;;
63975;SDS011;50167;47.958;21.780;2024-03-02T03:17:28;24.17;;;15.43;;
63975;SDS011;50167;47.958;21.780;2024-03-02T03:19:54;25.80;;;17.57;;
63975;SDS011;50167;47.958;21.780;2024-03-02T03:22:20;38.70;;;21.40;;
63975;SDS011;50167;47.958;21.780;2024-03-02T03:24:46;40.53;;;21.20;;
63975;SDS011;50167;47.958;21.780;2024-03-02T03:27:12;36.83;;;21.17;;
63975;SDS011;50167;47.958;21.780;2024-03-02T03:29:38;38.27;;;21.30;;
63975;SDS011;50167;47.958;21.780;2024-03-02T03:32:05;37.00;;;20.37;;
63975;SDS011;50167;47.958;21.780;2024-03-02T03:34:32;28.37;;;17.63;;
63975;SDS011;50167;47.958;21.780;2024-03-02T03:36:59;27.30;;;19.20;;
63975;SDS011;50167;47.958;21.780;2024-03-02T03:39:25;29.90;;;18.97;;
63975;SDS011;50167;47.958;21.780;2024-03-02T03:41:51;31.87;;;20.40;;
63975;SDS011;50167;47.958;21.780;2024-03-02T03:44:18;39.17;;;20.70;;
63975;SDS011;50167;47.958;21.780;2024-03-02T03:46:44;34.67;;;20.60;;
63975;SDS011;50167;47.958;21.780;2024-03-02T03:49:11;28.07;;;18.13;;
63975;SDS011;50167;47.958;21.780;2024-03-02T03:51:37;36.50;;;21.40;;
63975;SDS011;50167;47.958;21.780;2024-03-02T03:54:03;25.87;;;16.27;;
63975;SDS011;50167;47.958;21.780;2024-03-02T03:56:29;22.47;;;11.90;;
63975;SDS011;50167;47.958;21.780;2024-03-02T03:58:55;21.83;;;9.43;;
63975;SDS011;50167;47.958;21.780;2024-03-02T04:01:21;18.10;;;8.83;;
63975;SDS011;50167;47.958;21.780;2024-03-02T04:03:48;14.83;;;7.10;;
63975;SDS011;50167;47.958;21.780;2024-03-02T04:06:14;14.93;;;6.93;;
63975;SDS011;50167;47.958;21.780;2024-03-02T04:08:42;17.10;;;7.60;;
63975;SDS011;50167;47.958;21.780;2024-03-02T04:11:08;10.30;;;6.90;;
63975;SDS011;50167;47.958;21.780;2024-03-02T04:13:34;10.47;;;7.13;;
63975;SDS011;50167;47.958;21.780;2024-03-02T04:16:00;12.27;;;7.27;;
63975;SDS011;50167;47.958;21.780;2024-03-02T04:18:26;15.03;;;8.43;;
63975;SDS011;50167;47.958;21.780;2024-03-02T04:20:52;33.30;;;9.47;;
63975;SDS011;50167;47.958;21.780;2024-03-02T04:23:19;10.40;;;6.93;;
63975;SDS011;50167;47.958;21.780;2024-03-02T04:25:45;14.23;;;8.13;;
63975;SDS011;50167;47.958;21.780;2024-03-02T04:28:11;15.67;;;6.83;;
63975;SDS011;50167;47.958;21.780;2024-03-02T04:30:38;17.70;;;7.47;;
63975;SDS011;50167;47.958;21.780;2024-03-02T04:33:04;13.90;;;7.17;;
63975;SDS011;50167;47.958;21.780;2024-03-02T04:35:32;16.77;;;7.27;;
63975;SDS011;50167;47.958;21.780;2024-03-02T04:37:58;17.67;;;6.70;;
63975;SDS011;50167;47.958;21.780;2024-03-02T04:40:24;18.67;;;7.70;;
63975;SDS011;50167;47.958;21.780;2024-03-02T04:42:50;12.60;;;7.70;;
63975;SDS011;50167;47.958;21.780;2024-03-02T04:45:17;14.87;;;6.87;;
63975;SDS011;50167;47.958;21.780;2024-03-02T04:47:43;15.57;;;7.67;;
63975;SDS011;50167;47.958;21.780;2024-03-02T04:50:09;17.50;;;8.33;;
63975;SDS011;50167;47.958;21.780;2024-03-02T04:52:35;13.57;;;7.47;;
63975;SDS011;50167;47.958;21.780;2024-03-02T04:55:02;16.43;;;7.63;;
63975;SDS011;50167;47.958;21.780;2024-03-02T04:57:37;16.77;;;8.47;;
63975;SDS011;50167;47.958;21.780;2024-03-02T05:00:03;19.30;;;8.13;;
63975;SDS011;50167;47.958;21.780;2024-03-02T05:02:32;16.10;;;8.23;;
63975;SDS011;50167;47.958;21.780;2024-03-02T05:04:58;21.60;;;8.67;;
63975;SDS011;50167;47.958;21.780;2024-03-02T05:07:24;15.00;;;8.23;;
63975;SDS011;50167;47.958;21.780;2024-03-02T05:09:50;15.77;;;8.30;;
63975;SDS011;50167;47.958;21.780;2024-03-02T05:12:17;24.83;;;9.63;;
63975;SDS011;50167;47.958;21.780;2024-03-02T05:15:02;11.10;;;7.30;;
63975;SDS011;50167;47.958;21.780;2024-03-02T05:17:29;22.40;;;9.00;;
63975;SDS011;50167;47.958;21.780;2024-03-02T05:19:55;15.73;;;8.10;;
63975;SDS011;50167;47.958;21.780;2024-03-02T05:22:22;21.77;;;9.53;;
63975;SDS011;50167;47.958;21.780;2024-03-02T05:24:48;21.67;;;8.33;;
63975;SDS011;50167;47.958;21.780;2024-03-02T05:27:14;14.90;;;8.23;;
63975;SDS011;50167;47.958;21.780;2024-03-02T05:29:40;20.93;;;8.77;;
63975;SDS011;50167;47.958;21.780;2024-03-02T05:32:06;16.40;;;8.30;;
63975;SDS011;50167;47.958;21.780;2024-03-02T05:34:33;16.50;;;8.77;;
63975;SDS011;50167;47.958;21.780;2024-03-02T05:37:01;15.60;;;8.50;;
63975;SDS011;50167;47.958;21.780;2024-03-02T05:39:27;25.80;;;9.93;;
63975;SDS011;50167;47.958;21.780;2024-03-02T05:41:53;15.87;;;9.67;;
63975;SDS011;50167;47.958;21.780;2024-03-02T05:44:19;18.43;;;9.80;;
63975;SDS011;50167;47.958;21.780;2024-03-02T05:46:46;19.60;;;10.07;;
63975;SDS011;50167;47.958;21.780;2024-03-02T05:49:12;25.27;;;11.63;;
63975;SDS011;50167;47.958;21.780;2024-03-02T05:51:38;16.57;;;9.30;;
63975;SDS011;50167;47.958;21.780;2024-03-02T05:54:04;19.67;;;11.17;;
63975;SDS011;50167;47.958;21.780;2024-03-02T05:56:30;17.10;;;10.63;;
63975;SDS011;50167;47.958;21.780;2024-03-02T05:58:56;20.23;;;11.27;;
63975;SDS011;50167;47.958;21.780;2024-03-02T06:01:47;18.60;;;11.80;;
63975;SDS011;50167;47.958;21.780;2024-03-02T06:04:15;23.40;;;11.50;;
63975;SDS011;50167;47.958;21.780;2024-03-02T06:06:42;22.67;;;11.27;;
63975;SDS011;50167;47.958;21.780;2024-03-02T06:09:09;26.63;;;12.60;;
63975;SDS011;50167;47.958;21.780;2024-03-02T06:11:37;30.33;;;12.40;;
63975;SDS011;50167;47.958;21.780;2024-03-02T06:14:06;19.67;;;10.63;;
63975;SDS011;50167;47.958;21.780;2024-03-02T06:16:34;22.63;;;11.93;;
63975;SDS011;50167;47.958;21.780;2024-03-02T06:19:00;22.97;;;11.47;;
63975;SDS011;50167;47.958;21.780;2024-03-02T06:21:27;24.97;;;14.30;;
63975;SDS011;50167;47.958;21.780;2024-03-02T06:23:54;26.17;;;14.07;;
63975;SDS011;50167;47.958;21.780;2024-03-02T06:26:20;30.17;;;14.87;;
63975;SDS011;50167;47.958;21.780;2024-03-02T06:28:46;29.00;;;14.13;;
63975;SDS011;50167;47.958;21.780;2024-03-02T06:31:12;27.73;;;13.40;;
63975;SDS011;50167;47.958;21.780;2024-03-02T06:33:39;28.67;;;14.73;;
63975;SDS011;50167;47.958;21.780;2024-03-02T06:36:06;23.50;;;13.10;;
63975;SDS011;50167;47.958;21.780;2024-03-02T06:38:37;25.57;;;14.60;;
63975;SDS011;50167;47.958;21.780;2024-03-02T06:41:05;22.83;;;13.87;;
63975;SDS011;50167;47.958;21.780;2024-03-02T06:43:31;27.33;;;14.33;;
63975;SDS011;50167;47.958;21.780;2024-03-02T06:45:57;25.77;;;16.50;;
63975;SDS011;50167;47.958;21.780;2024-03-02T06:48:23;28.70;;;14.83;;
63975;SDS011;50167;47.958;21.780;2024-03-02T06:50:50;28.10;;;16.00;;
63975;SDS011;50167;47.958;21.780;2024-03-02T06:53:17;27.10;;;15.50;;
63975;SDS011;50167;47.958;21.780;2024-03-02T06:55:44;28.40;;;16.13;;
63975;SDS011;50167;47.958;21.780;2024-03-02T06:58:12;27.50;;;16.47;;
63975;SDS011;50167;47.958;21.780;2024-03-02T07:00:40;31.30;;;16.23;;
63975;SDS011;50167;47.958;21.780;2024-03-02T07:03:09;29.67;;;17.67;;
63975;SDS011;50167;47.958;21.780;2024-03-02T07:05:35;25.87;;;14.07;;
63975;SDS011;50167;47.958;21.780;2024-03-02T07:08:01;30.27;;;19.00;;
63975;SDS011;50167;47.958;21.780;2024-03-02T07:10:28;35.83;;;19.57;;
63975;SDS011;50167;47.958;21.780;2024-03-02T07:12:54;42.33;;;23.27;;
63975;SDS011;50167;47.958;21.780;2024-03-02T07:15:21;39.00;;;23.20;;
63975;SDS011;50167;47.958;21.780;2024-03-02T07:17:52;42.20;;;19.17;;
63975;SDS011;50167;47.958;21.780;2024-03-02T07:20:18;33.73;;;20.80;;
63975;SDS011;50167;47.958;21.780;2024-03-02T07:22:44;32.20;;;18.87;;
63975;SDS011;50167;47.958;21.780;2024-03-02T07:25:10;29.00;;;16.87;;
63975;SDS011;50167;47.958;21.780;2024-03-02T07:27:38;27.73;;;18.63;;
63975;SDS011;50167;47.958;21.780;2024-03-02T07:30:05;30.37;;;18.57;;
63975;SDS011;50167;47.958;21.780;2024-03-02T07:32:32;30.10;;;18.90;;
63975;SDS011;50167;47.958;21.780;2024-03-02T07:34:58;26.60;;;17.13;;
63975;SDS011;50167;47.958;21.780;2024-03-02T07:37:26;31.23;;;17.97;;
63975;SDS011;50167;47.958;21.780;2024-03-02T07:39:53;29.73;;;17.30;;
63975;SDS011;50167;47.958;21.780;2024-03-02T07:42:19;67.43;;;20.13;;
63975;SDS011;50167;47.958;21.780;2024-03-02T07:44:45;36.37;;;18.03;;
63975;SDS011;50167;47.958;21.780;2024-03-02T07:47:15;30.35;;;17.57;;
63975;SDS011;50167;47.958;21.780;2024-03-02T07:49:42;28.10;;;17.17;;
63975;SDS011;50167;47.958;21.780;2024-03-02T07:52:09;23.83;;;15.77;;
63975;SDS011;50167;47.958;21.780;2024-03-02T07:54:35;33.37;;;16.13;;
63975;SDS011;50167;47.958;21.780;2024-03-02T07:57:01;28.30;;;13.77;;
63975;SDS011;50167;47.958;21.780;2024-03-02T07:59:28;24.23;;;15.13;;
63975;SDS011;50167;47.958;21.780;2024-03-02T08:01:54;30.13;;;15.47;;
63975;SDS011;50167;47.958;21.780;2024-03-02T08:04:21;27.60;;;15.63;;
63975;SDS011;50167;47.958;21.780;2024-03-02T08:06:47;30.20;;;15.60;;
63975;SDS011;50167;47.958;21.780;2024-03-02T08:09:13;20.40;;;15.47;;
63975;SDS011;50167;47.958;21.780;2024-03-02T08:11:39;24.87;;;14.80;;
63975;SDS011;50167;47.958;21.780;2024-03-02T08:16:36;32.53;;;15.50;;
63975;SDS011;50167;47.958;21.780;2024-03-02T08:19:02;27.07;;;16.37;;
63975;SDS011;50167;47.958;21.780;2024-03-02T08:21:28;23.77;;;16.40;;
63975;SDS011;50167;47.958;21.780;2024-03-02T08:23:56;24.13;;;15.83;;
63975;SDS011;50167;47.958;21.780;2024-03-02T08:26:23;31.83;;;18.90;;
63975;SDS011;50167;47.958;21.780;2024-03-02T08:28:50;27.10;;;16.90;;
63975;SDS011;50167;47.958;21.780;2024-03-02T08:31:16;34.87;;;18.47;;
63975;SDS011;50167;47.958;21.780;2024-03-02T08:33:42;105.20;;;24.23;;
63975;SDS011;50167;47.958;21.780;2024-03-02T08:36:08;48.97;;;18.67;;
63975;SDS011;50167;47.958;21.780;2024-03-02T08:38:35;27.90;;;17.40;;
63975;SDS011;50167;47.958;21.780;2024-03-02T08:41:01;29.77;;;19.10;;
63975;SDS011;50167;47.958;21.780;2024-03-02T08:43:29;33.50;;;20.73;;
63975;SDS011;50167;47.958;21.780;2024-03-02T08:45:55;29.47;;;17.97;;
63975;SDS011;50167;47.958;21.780;2024-03-02T08:48:21;29.50;;;18.00;;
63975;SDS011;50167;47.958;21.780;2024-03-02T08:50:47;23.93;;;16.70;;
63975;SDS011;50167;47.958;21.780;2024-03-02T08:53:13;25.87;;;14.83;;
63975;SDS011;50167;47.958;21.780;2024-03-02T08:55:41;27.43;;;16.47;;
63975;SDS011;50167;47.958;21.780;2024-03-02T08:58:07;23.83;;;16.63;;
63975;SDS011;50167;47.958;21.780;2024-03-02T09:00:33;33.30;;;19.07;;
63975;SDS011;50167;47.958;21.780;2024-03-02T09:03:02;28.43;;;18.43;;
63975;SDS011;50167;47.958;21.780;2024-03-02T09:05:29;32.70;;;18.83;;
63975;SDS011;50167;47.958;21.780;2024-03-02T09:07:57;29.90;;;19.17;;
63975;SDS011;50167;47.958;21.780;2024-03-02T09:10:23;30.87;;;19.10;;
63975;SDS011;50167;47.958;21.780;2024-03-02T09:12:50;33.00;;;18.60;;
63975;SDS011;50167;47.958;21.780;2024-03-02T09:15:16;30.73;;;19.13;;
63975;SDS011;50167;47.958;21.780;2024-03-02T09:17:42;28.37;;;19.33;;
63975;SDS011;50167;47.958;21.780;2024-03-02T09:20:08;30.83;;;18.37;;
63975;SDS011;50167;47.958;21.780;2024-03-02T09:22:36;28.80;;;18.80;;
63975;SDS011;50167;47.958;21.780;2024-03-02T09:25:02;36.67;;;19.23;;
63975;SDS011;50167;47.958;21.780;2024-03-02T09:27:29;30.43;;;18.03;;
63975;SDS011;50167;47.958;21.780;2024-03-02T09:29:55;28.13;;;18.23;;
63975;SDS011;50167;47.958;21.780;2024-03-02T09:32:24;27.00;;;16.87;;
63975;SDS011;50167;47.958;21.780;2024-03-02T09:34:52;25.53;;;16.80;;
63975;SDS011;50167;47.958;21.780;2024-03-02T09:37:19;22.83;;;15.70;;
63975;SDS011;50167;47.958;21.780;2024-03-02T09:39:46;30.53;;;17.20;;
63975;SDS011;50167;47.958;21.780;2024-03-02T09:42:12;26.50;;;17.37;;
63975;SDS011;50167;47.958;21.780;2024-03-02T09:44:39;23.77;;;16.03;;
63975;SDS011;50167;47.958;21.780;2024-03-02T09:47:06;26.00;;;17.13;;
63975;SDS011;50167;47.958;21.780;2024-03-02T09:49:33;33.03;;;17.57;;
63975;SDS011;50167;47.958;21.780;2024-03-02T09:52:00;21.60;;;15.47;;
63975;SDS011;50167;47.958;21.780;2024-03-02T09:54:28;24.17;;;15.30;;
63975;SDS011;50167;47.958;21.780;2024-03-02T09:56:54;23.60;;;16.10;;
63975;SDS011;50167;47.958;21.780;2024-03-02T09:59:20;23.27;;;17.33;;
63975;SDS011;50167;47.958;21.780;2024-03-02T10:04:26;19.37;;;14.73;;
63975;SDS011;50167;47.958;21.780;2024-03-02T10:07:09;25.90;;;16.53;;
63975;SDS011;50167;47.958;21.780;2024-03-02T10:09:41;23.77;;;15.57;;
63975;SDS011;50167;47.958;21.780;2024-03-02T10:12:12;25.40;;;15.87;;
63975;SDS011;50167;47.958;21.780;2024-03-02T10:14:40;24.90;;;14.75;;
63975;SDS011;50167;47.958;21.780;2024-03-02T10:17:08;23.50;;;16.07;;
63975;SDS011;50167;47.958;21.780;2024-03-02T10:19:38;27.82;;;15.35;;
63975;SDS011;50167;47.958;21.780;2024-03-02T10:22:05;19.77;;;14.50;;
63975;SDS011;50167;47.958;21.780;2024-03-02T10:24:37;29.47;;;16.27;;
63975;SDS011;50167;47.958;21.780;2024-03-02T10:27:16;22.90;;;16.27;;
63975;SDS011;50167;47.958;21.780;2024-03-02T10:29:47;29.07;;;18.20;;
63975;SDS011;50167;47.958;21.780;2024-03-02T10:32:13;26.20;;;15.58;;
63975;SDS011;50167;47.958;21.780;2024-03-02T10:34:42;19.80;;;15.87;;
63975;SDS011;50167;47.958;21.780;2024-03-02T10:37:10;28.50;;;16.17;;
63975;SDS011;50167;47.958;21.780;2024-03-02T10:39:37;22.07;;;15.27;;
63975;SDS011;50167;47.958;21.780;2024-03-02T10:42:08;22.62;;;16.48;;
63975;SDS011;50167;47.958;21.780;2024-03-02T10:44:34;22.70;;;15.37;;
63975;SDS011;50167;47.958;21.780;2024-03-02T10:47:01;26.70;;;15.57;;
63975;SDS011;50167;47.958;21.780;2024-03-02T10:49:30;20.80;;;13.73;;
63975;SDS011;50167;47.958;21.780;2024-03-02T10:51:58;25.87;;;14.03;;
63975;SDS011;50167;47.958;21.780;2024-03-02T10:54:24;20.03;;;13.93;;
63975;SDS011;50167;47.958;21.780;2024-03-02T10:56:59;20.67;;;13.97;;
63975;SDS011;50167;47.958;21.780;2024-03-02T11:02:01;27.00;;;14.30;;
63975;SDS011;50167;47.958;21.780;2024-03-02T11:04:31;22.37;;;15.10;;
63975;SDS011;50167;47.958;21.780;2024-03-02T11:07:02;22.33;;;15.50;;
63975;SDS011;50167;47.958;21.780;2024-03-02T11:09:35;22.30;;;15.87;;
63975;SDS011;50167;47.958;21.780;2024-03-02T11:12:09;20.40;;;14.10;;
63975;SDS011;50167;47.958;21.780;2024-03-02T11:17:14;23.13;;;10.67;;
63975;SDS011;50167;47.958;21.780;2024-03-02T11:19:41;14.23;;;8.87;;
63975;SDS011;50167;47.958;21.780;2024-03-02T11:22:08;12.10;;;9.17;;
63975;SDS011;50167;47.958;21.780;2024-03-02T11:24:35;14.10;;;9.60;;
63975;SDS011;50167;47.958;21.780;2024-03-02T11:27:03;15.40;;;9.50;;
63975;SDS011;50167;47.958;21.780;2024-03-02T11:32:16;15.40;;;8.70;;
63975;SDS011;50167;47.958;21.780;2024-03-02T11:34:47;12.20;;;8.00;;
63975;SDS011;50167;47.958;21.780;2024-03-02T11:37:15;12.07;;;9.03;;
63975;SDS011;50167;47.958;21.780;2024-03-02T11:39:48;11.37;;;7.73;;
63975;SDS011;50167;47.958;21.780;2024-03-02T11:42:16;19.30;;;7.03;;
63975;SDS011;50167;47.958;21.780;2024-03-02T11:44:46;10.27;;;6.60;;
63975;SDS011;50167;47.958;21.780;2024-03-02T11:47:14;13.40;;;6.70;;
63975;SDS011;50167;47.958;21.780;2024-03-02T11:49:46;21.90;;;11.80;;
63975;SDS011;50167;47.958;21.780;2024-03-02T11:52:17;14.53;;;8.37;;
63975;SDS011;50167;47.958;21.780;2024-03-02T11:54:45;15.80;;;9.20;;
63975;SDS011;50167;47.958;21.780;2024-03-02T11:57:21;11.70;;;7.10;;
63975;SDS011;50167;47.958;21.780;2024-03-02T11:59:47;9.07;;;6.17;;
63975;SDS011;50167;47.958;21.780;2024-03-02T12:02:21;15.15;;;7.70;;
63975;SDS011;50167;47.958;21.780;2024-03-02T12:04:48;11.10;;;6.13;;
63975;SDS011;50167;47.958;21.780;2024-03-02T12:07:23;11.10;;;6.57;;
63975;SDS011;50167;47.958;21.780;2024-03-02T12:09:48;8.77;;;5.90;;
63975;SDS011;50167;47.958;21.780;2024-03-02T12:12:17;13.97;;;7.13;;
63975;SDS011;50167;47.958;21.780;2024-03-02T12:14:50;10.10;;;6.33;;
63975;SDS011;50167;47.958;21.780;2024-03-02T12:17:20;10.57;;;7.07;;
63975;SDS011;50167;47.958;21.780;2024-03-02T12:19:48;10.50;;;7.03;;
63975;SDS011;50167;47.958;21.780;2024-03-02T12:22:14;11.17;;;6.97;;
63975;SDS011;50167;47.958;21.780;2024-03-02T12:24:41;13.00;;;7.83;;
63975;SDS011;50167;47.958;21.780;2024-03-02T12:27:10;10.67;;;7.43;;
63975;SDS011;50167;47.958;21.780;2024-03-02T12:29:37;14.75;;;6.70;;
63975;SDS011;50167;47.958;21.780;2024-03-02T12:32:04;11.20;;;5.57;;
63975;SDS011;50167;47.958;21.780;2024-03-02T12:34:32;7.17;;;5.57;;
63975;SDS011;50167;47.958;21.780;2024-03-02T12:36:58;8.60;;;5.57;;
63975;SDS011;50167;47.958;21.780;2024-03-02T12:39:24;19.10;;;7.00;;
63975;SDS011;50167;47.958;21.780;2024-03-02T12:41:52;9.90;;;6.30;;
63975;SDS011;50167;47.958;21.780;2024-03-02T12:44:19;13.90;;;8.73;;
63975;SDS011;50167;47.958;21.780;2024-03-02T12:46:46;8.83;;;6.07;;
63975;SDS011;50167;47.958;21.780;2024-03-02T12:49:13;11.07;;;6.93;;
63975;SDS011;50167;47.958;21.780;2024-03-02T12:51:42;18.20;;;7.60;;
63975;SDS011;50167;47.958;21.780;2024-03-02T12:54:09;11.37;;;7.30;;
63975;SDS011;50167;47.958;21.780;2024-03-02T12:56:36;9.73;;;7.33;;
63975;SDS011;50167;47.958;21.780;2024-03-02T12:59:03;13.17;;;7.57;;
63975;SDS011;50167;47.958;21.780;2024-03-02T13:01:31;16.70;;;8.90;;
63975;SDS011;50167;47.958;21.780;2024-03-02T13:03:57;27.63;;;8.60;;
63975;SDS011;50167;47.958;21.780;2024-03-02T13:06:24;14.00;;;7.67;;
63975;SDS011;50167;47.958;21.780;2024-03-02T13:08:55;23.07;;;14.20;;
63975;SDS011;50167;47.958;21.780;2024-03-02T13:11:22;27.10;;;16.80;;
63975;SDS011;50167;47.958;21.780;2024-03-02T13:13:51;15.80;;;9.23;;
63975;SDS011;50167;47.958;21.780;2024-03-02T13:16:17;13.60;;;7.87;;
63975;SDS011;50167;47.958;21.780;2024-03-02T13:18:45;12.93;;;9.13;;
63975;SDS011;50167;47.958;21.780;2024-03-02T13:21:11;16.10;;;8.27;;
63975;SDS011;50167;47.958;21.780;2024-03-02T13:23:38;13.10;;;7.90;;
63975;SDS011;50167;47.958;21.780;2024-03-02T13:26:04;12.37;;;8.60;;
63975;SDS011;50167;47.958;21.780;2024-03-02T13:28:30;11.30;;;8.70;;
63975;SDS011;50167;47.958;21.780;2024-03-02T13:30:56;18.07;;;10.13;;
63975;SDS011;50167;47.958;21.780;2024-03-02T13:33:22;10.53;;;8.33;;
63975;SDS011;50167;47.958;21.780;2024-03-02T13:35:49;12.50;;;8.50;;
63975;SDS011;50167;47.958;21.780;2024-03-02T13:38:19;14.17;;;9.17;;
63975;SDS011;50167;47.958;21.780;2024-03-02T13:40:46;16.35;;;11.45;;
63975;SDS011;50167;47.958;21.780;2024-03-02T13:43:18;17.13;;;10.20;;
63975;SDS011;50167;47.958;21.780;2024-03-02T13:45:45;13.43;;;9.40;;
63975;SDS011;50167;47.958;21.780;2024-03-02T13:48:11;16.53;;;11.10;;
63975;SDS011;50167;47.958;21.780;2024-03-02T13:50:37;11.77;;;8.50;;
63975;SDS011;50167;47.958;21.780;2024-03-02T13:53:03;14.13;;;9.93;;
63975;SDS011;50167;47.958;21.780;2024-03-02T13:55:29;28.23;;;11.23;;
63975;SDS011;50167;47.958;21.780;2024-03-02T13:57:56;13.97;;;9.07;;
63975;SDS011;50167;47.958;21.780;2024-03-02T14:00:22;17.30;;;9.43;;
63975;SDS011;50167;47.958;21.780;2024-03-02T14:02:48;14.43;;;8.53;;
63975;SDS011;50167;47.958;21.780;2024-03-02T14:05:15;15.20;;;8.60;;
63975;SDS011;50167;47.958;21.780;2024-03-02T14:07:42;15.90;;;9.57;;
63975;SDS011;50167;47.958;21.780;2024-03-02T14:10:09;19.37;;;12.40;;
63975;SDS011;50167;47.958;21.780;2024-03-02T14:12:36;13.13;;;8.63;;
63975;SDS011;50167;47.958;21.780;2024-03-02T14:15:03;14.00;;;8.50;;
63975;SDS011;50167;47.958;21.780;2024-03-02T14:17:31;17.07;;;8.73;;
63975;SDS011;50167;47.958;21.780;2024-03-02T14:19:57;11.80;;;8.10;;
63975;SDS011;50167;47.958;21.780;2024-03-02T14:22:27;11.03;;;8.13;;
63975;SDS011;50167;47.958;21.780;2024-03-02T14:24:55;14.60;;;7.60;;
63975;SDS011;50167;47.958;21.780;2024-03-02T14:27:21;11.43;;;7.67;;
63975;SDS011;50167;47.958;21.780;2024-03-02T14:29:47;9.73;;;7.10;;
63975;SDS011;50167;47.958;21.780;2024-03-02T14:32:14;10.53;;;7.07;;
63975;SDS011;50167;47.958;21.780;2024-03-02T14:34:40;10.67;;;7.43;;
63975;SDS011;50167;47.958;21.780;2024-03-02T14:37:06;11.30;;;7.97;;